Lake Slagle, Ohio
Current Conditions -  °F | °C
As of 10:51 AM on Sunday 23 Nov 2014 (Local Time) from KCAK Reporting Station
Overcast Overcast  
Wind Chill: 50°   Ceiling: 5000
Heat Index: 50°   Visibility: 10mi
Dew Point: 36°   Wind: 8mph
Humidity: 59%   Direction: 160°SSE
Pressure: 30.01"   Gusts: NA
Location:  40.9014°N, 81.4333°W
Report Text: KCAK 231551Z 16007KT 10SM SCT022 BKN050 OVC080 10/02 A3001 RMK AO2 RAE02 SLP165 P0000 T01000022 $
Loading
Personal Weather Stations






























Interactive Weather Map New forecast layout! Learn more

10-Day Weather Forecast

Advertisements
Track Severe Weather on mobile